createdAt,value
2016-08-17T00:00:22.406Z,0
2016-08-17T00:01:21.681Z,0
2016-08-17T00:02:21.699Z,0
2016-08-17T00:03:21.739Z,0
2016-08-17T00:04:21.757Z,0
2016-08-17T00:05:21.712Z,0
2016-08-17T00:06:21.729Z,0
2016-08-17T00:07:21.758Z,0
2016-08-17T00:08:21.771Z,0
2016-08-17T00:09:21.787Z,0
2016-08-17T00:10:21.815Z,0
2016-08-17T00:11:21.790Z,0
2016-08-17T00:12:21.844Z,0
2016-08-17T00:13:21.791Z,0
2016-08-17T00:14:21.845Z,0
2016-08-17T00:15:21.803Z,0
2016-08-17T00:16:21.830Z,0
2016-08-17T00:17:21.835Z,0
2016-08-17T00:18:21.846Z,0
2016-08-17T00:19:21.889Z,0
2016-08-17T00:20:21.883Z,0
2016-08-17T00:21:21.894Z,0
2016-08-17T00:22:21.872Z,0
2016-08-17T00:23:21.926Z,0
2016-08-17T00:24:21.909Z,0
2016-08-17T00:25:21.953Z,0
2016-08-17T00:26:21.945Z,0
2016-08-17T00:27:21.915Z,0
2016-08-17T00:28:21.935Z,0
2016-08-17T00:29:21.947Z,0
2016-08-17T00:30:21.942Z,0
2016-08-17T00:31:22.632Z,0
2016-08-17T00:32:21.968Z,0
2016-08-17T00:33:21.963Z,0
2016-08-17T00:34:21.979Z,0
2016-08-17T00:35:21.988Z,0
2016-08-17T00:36:22.007Z,0
2016-08-17T00:37:21.973Z,0
2016-08-17T00:38:21.996Z,0
2016-08-17T00:39:22.042Z,0
2016-08-17T00:40:22.039Z,0
2016-08-17T00:41:22.080Z,0
2016-08-17T00:42:22.058Z,0
2016-08-17T00:43:22.045Z,0
2016-08-17T00:44:22.058Z,0
2016-08-17T00:45:22.084Z,0
2016-08-17T00:46:22.097Z,0
2016-08-17T00:47:22.079Z,0
2016-08-17T00:48:22.090Z,0
2016-08-17T00:49:22.137Z,0
2016-08-17T00:50:22.130Z,0
2016-08-17T00:51:22.124Z,0
2016-08-17T00:52:22.148Z,0
2016-08-17T00:53:22.159Z,0
2016-08-17T00:54:22.150Z,0
2016-08-17T00:55:22.148Z,0
2016-08-17T00:56:22.180Z,0
2016-08-17T00:57:22.191Z,0
2016-08-17T00:58:22.201Z,0
2016-08-17T00:59:22.203Z,0
2016-08-17T01:00:22.231Z,0
2016-08-17T01:01:22.257Z,0
2016-08-17T01:02:22.208Z,0
2016-08-17T01:03:22.239Z,0
2016-08-17T01:04:22.240Z,0
2016-08-17T01:05:22.269Z,0
2016-08-17T01:06:22.266Z,0
2016-08-17T01:07:22.268Z,0
2016-08-17T01:08:22.283Z,0
2016-08-17T01:09:22.285Z,0
2016-08-17T01:10:22.303Z,0
2016-08-17T01:11:22.298Z,0
2016-08-17T01:12:22.310Z,0
2016-08-17T01:13:22.351Z,0
2016-08-17T01:14:22.318Z,0
2016-08-17T01:15:22.349Z,0
2016-08-17T01:16:23.072Z,0
2016-08-17T01:17:22.371Z,0
2016-08-17T01:18:22.349Z,0
2016-08-17T01:19:22.370Z,0
2016-08-17T01:20:22.390Z,0
2016-08-17T01:21:22.389Z,0
2016-08-17T01:22:22.426Z,0
2016-08-17T01:23:22.431Z,0
2016-08-17T01:24:22.418Z,0
2016-08-17T01:25:22.429Z,0
2016-08-17T01:26:22.448Z,0
2016-08-17T01:27:22.422Z,0
2016-08-17T01:28:22.463Z,0
2016-08-17T01:29:23.199Z,0
2016-08-17T01:30:22.468Z,0
2016-08-17T01:31:22.475Z,0
2016-08-17T01:32:22.488Z,0
2016-08-17T01:33:22.500Z,0
2016-08-17T01:34:22.497Z,0
2016-08-17T01:35:22.514Z,0
2016-08-17T01:36:22.554Z,0
2016-08-17T01:37:22.560Z,0
2016-08-17T01:38:22.550Z,0
2016-08-17T01:39:22.550Z,0
2016-08-17T01:40:22.570Z,0
2016-08-17T01:41:22.615Z,0
2016-08-17T01:42:22.570Z,0
2016-08-17T01:43:22.568Z,0
2016-08-17T01:44:22.595Z,0
2016-08-17T01:45:22.605Z,0
2016-08-17T01:46:22.589Z,0
2016-08-17T01:47:22.616Z,0
2016-08-17T01:48:22.630Z,0
2016-08-17T01:49:22.637Z,0
2016-08-17T01:50:22.636Z,0
2016-08-17T01:51:22.657Z,0
2016-08-17T01:52:22.679Z,0
2016-08-17T01:53:22.663Z,0
2016-08-17T01:54:22.660Z,0
2016-08-17T01:55:22.693Z,0
2016-08-17T01:56:22.714Z,0
2016-08-17T01:57:22.694Z,0
2016-08-17T01:58:22.736Z,0
2016-08-17T01:59:22.709Z,0
2016-08-17T02:00:22.722Z,0
2016-08-17T02:01:22.745Z,0
2016-08-17T02:02:22.743Z,0
2016-08-17T02:03:22.756Z,0
2016-08-17T02:04:22.770Z,0
2016-08-17T02:05:22.790Z,0
2016-08-17T02:06:22.796Z,0
2016-08-17T02:07:22.817Z,0
2016-08-17T02:08:22.787Z,0
2016-08-17T02:09:22.818Z,0
2016-08-17T02:10:22.838Z,0
2016-08-17T02:11:22.814Z,0
2016-08-17T02:12:22.846Z,0
2016-08-17T02:13:22.863Z,0
2016-08-17T02:14:22.869Z,0
2016-08-17T02:15:22.855Z,0
2016-08-17T02:16:22.880Z,0
2016-08-17T02:17:22.871Z,0
2016-08-17T02:18:22.890Z,0
2016-08-17T02:19:22.909Z,0
2016-08-17T02:20:22.908Z,0
2016-08-17T02:21:22.909Z,0
2016-08-17T02:22:22.934Z,0
2016-08-17T02:23:22.910Z,0
2016-08-17T02:24:22.946Z,0
2016-08-17T02:25:22.958Z,0
2016-08-17T02:26:22.949Z,0
2016-08-17T02:27:22.987Z,0
2016-08-17T02:28:22.959Z,0
2016-08-17T02:29:22.985Z,0
2016-08-17T02:30:23.009Z,0
2016-08-17T02:31:22.992Z,0
2016-08-17T02:32:23.025Z,0
2016-08-17T02:33:23.011Z,0
2016-08-17T02:34:23.011Z,0
2016-08-17T02:35:23.064Z,0
2016-08-17T02:36:23.082Z,0
2016-08-17T02:37:23.036Z,0
2016-08-17T02:38:23.060Z,0
2016-08-17T02:39:23.080Z,0
2016-08-17T02:40:23.096Z,0
2016-08-17T02:41:23.273Z,0
2016-08-17T02:42:23.089Z,0
2016-08-17T02:43:23.099Z,0
2016-08-17T02:44:23.123Z,0
2016-08-17T02:45:23.133Z,0
2016-08-17T02:46:23.118Z,0
2016-08-17T02:47:23.150Z,0
2016-08-17T02:48:23.147Z,0
2016-08-17T02:49:23.170Z,0
2016-08-17T02:50:23.190Z,0
2016-08-17T02:51:23.193Z,0
2016-08-17T02:52:23.182Z,0
2016-08-17T02:53:23.208Z,0
2016-08-17T02:54:23.208Z,0
2016-08-17T02:55:23.226Z,0
2016-08-17T02:56:23.221Z,0
2016-08-17T02:57:23.223Z,0
2016-08-17T02:58:23.239Z,0
2016-08-17T02:59:23.245Z,0
2016-08-17T03:00:23.251Z,0
2016-08-17T03:01:23.287Z,0
2016-08-17T03:02:23.291Z,0
2016-08-17T03:03:23.279Z,0
2016-08-17T03:04:23.321Z,0
2016-08-17T03:05:23.315Z,0
2016-08-17T03:06:23.312Z,0
2016-08-17T03:07:23.344Z,0
2016-08-17T03:08:23.346Z,0
2016-08-17T03:09:23.342Z,0
2016-08-17T03:10:24.025Z,0
2016-08-17T03:11:23.342Z,0
2016-08-17T03:12:23.353Z,0
2016-08-17T03:13:23.353Z,0
2016-08-17T03:14:23.378Z,0
2016-08-17T03:15:23.369Z,0
2016-08-17T03:16:23.424Z,0
2016-08-17T03:17:23.418Z,0
2016-08-17T03:18:23.416Z,0
2016-08-17T03:19:23.422Z,0
2016-08-17T03:20:23.420Z,0
2016-08-17T03:21:23.436Z,0
2016-08-17T03:22:23.451Z,0
2016-08-17T03:23:23.447Z,0
2016-08-17T03:24:23.449Z,0
2016-08-17T03:25:23.488Z,0
2016-08-17T03:26:23.491Z,0
2016-08-17T03:27:23.484Z,0
2016-08-17T03:28:23.498Z,0
2016-08-17T03:29:23.526Z,0
2016-08-17T03:30:23.520Z,0
2016-08-17T03:31:23.511Z,0
2016-08-17T03:32:23.519Z,0
2016-08-17T03:33:23.551Z,0
2016-08-17T03:34:23.538Z,0
2016-08-17T03:35:23.562Z,0
2016-08-17T03:36:23.581Z,0
2016-08-17T03:37:23.586Z,0
2016-08-17T03:38:23.613Z,0
2016-08-17T03:39:23.590Z,0
2016-08-17T03:40:23.576Z,0
2016-08-17T03:41:23.668Z,0
2016-08-17T03:42:23.619Z,0
2016-08-17T03:43:23.662Z,0
2016-08-17T03:44:23.636Z,0
2016-08-17T03:45:23.652Z,0
2016-08-17T03:46:23.646Z,0
2016-08-17T03:47:23.640Z,0
2016-08-17T03:48:23.683Z,0
2016-08-17T03:49:23.671Z,0
2016-08-17T03:50:23.710Z,0
2016-08-17T03:51:23.682Z,0
2016-08-17T03:52:23.691Z,0
2016-08-17T03:53:24.395Z,0
2016-08-17T03:54:23.717Z,0
2016-08-17T03:55:23.732Z,0
2016-08-17T03:56:23.727Z,0
2016-08-17T03:57:23.766Z,0
2016-08-17T03:58:23.742Z,0
2016-08-17T03:59:23.774Z,0
2016-08-17T04:00:23.780Z,0
2016-08-17T04:01:23.785Z,0
2016-08-17T04:02:23.800Z,0
2016-08-17T04:03:23.786Z,0
2016-08-17T04:04:23.786Z,0
2016-08-17T04:05:23.821Z,0
2016-08-17T04:06:24.532Z,0
2016-08-17T04:07:23.813Z,0
2016-08-17T04:08:23.832Z,0
2016-08-17T04:09:23.842Z,0
2016-08-17T04:10:23.855Z,0
2016-08-17T04:11:23.885Z,0
2016-08-17T04:12:23.874Z,0
2016-08-17T04:13:23.906Z,0
2016-08-17T04:14:23.866Z,0
2016-08-17T04:15:23.899Z,0
2016-08-17T04:16:23.916Z,0
2016-08-17T04:17:23.927Z,0
2016-08-17T04:18:23.909Z,0
2016-08-17T04:19:23.924Z,0
2016-08-17T04:20:23.916Z,0
2016-08-17T04:21:23.962Z,0
2016-08-17T04:22:23.952Z,0
2016-08-17T04:23:23.988Z,0
2016-08-17T04:24:23.971Z,0
2016-08-17T04:25:23.977Z,0
2016-08-17T04:26:23.988Z,4
2016-08-17T04:27:23.994Z,4
2016-08-17T04:28:23.995Z,4
2016-08-17T04:29:24.020Z,4
2016-08-17T04:30:24.026Z,0
2016-08-17T04:31:24.016Z,0
2016-08-17T04:32:24.036Z,0
2016-08-17T04:33:24.048Z,0
2016-08-17T04:34:24.109Z,0
2016-08-17T04:35:24.076Z,0
2016-08-17T04:36:24.087Z,0
2016-08-17T04:37:24.111Z,0
2016-08-17T04:38:24.136Z,0
2016-08-17T04:39:24.131Z,0
2016-08-17T04:40:24.097Z,4
2016-08-17T04:41:24.220Z,0
2016-08-17T04:42:24.136Z,0
2016-08-17T04:43:24.155Z,4
2016-08-17T04:44:24.149Z,4
2016-08-17T04:45:24.137Z,0
2016-08-17T04:46:24.188Z,4
2016-08-17T04:47:24.198Z,4
2016-08-17T04:48:24.180Z,4
2016-08-17T04:49:24.210Z,4
2016-08-17T04:50:24.188Z,0
2016-08-17T04:51:24.200Z,0
2016-08-17T04:52:24.231Z,0
2016-08-17T04:53:24.235Z,0
2016-08-17T04:54:24.252Z,0
2016-08-17T04:55:24.243Z,0
2016-08-17T04:56:24.246Z,4
2016-08-17T04:57:24.261Z,4
2016-08-17T04:58:24.286Z,4
2016-08-17T04:59:24.285Z,4
2016-08-17T05:00:24.300Z,4
2016-08-17T05:01:24.307Z,4
2016-08-17T05:02:24.283Z,4
2016-08-17T05:03:24.310Z,4
2016-08-17T05:04:24.339Z,4
2016-08-17T05:05:24.357Z,4
2016-08-17T05:06:24.341Z,4
2016-08-17T05:07:24.319Z,4
2016-08-17T05:08:24.360Z,4
2016-08-17T05:09:24.374Z,4
2016-08-17T05:10:24.381Z,4
2016-08-17T05:11:24.388Z,4
2016-08-17T05:12:24.419Z,4
2016-08-17T05:13:24.397Z,4
2016-08-17T05:14:24.419Z,4
2016-08-17T05:15:24.406Z,4
2016-08-17T05:16:24.437Z,4
2016-08-17T05:17:24.413Z,4
2016-08-17T05:18:24.421Z,4
2016-08-17T05:19:24.437Z,4
2016-08-17T05:20:24.450Z,4
2016-08-17T05:21:24.487Z,4
2016-08-17T05:22:24.480Z,4
2016-08-17T05:23:24.482Z,4
2016-08-17T05:24:24.504Z,8
2016-08-17T05:25:24.479Z,8
2016-08-17T05:26:24.516Z,8
2016-08-17T05:27:25.226Z,8
2016-08-17T05:28:24.537Z,4
2016-08-17T05:29:24.538Z,4
2016-08-17T05:30:24.560Z,4
2016-08-17T05:31:24.554Z,4
2016-08-17T05:32:24.577Z,4
2016-08-17T05:33:24.543Z,4
2016-08-17T05:34:24.584Z,4
2016-08-17T05:35:24.597Z,8
2016-08-17T05:36:24.607Z,8
2016-08-17T05:37:24.602Z,8
2016-08-17T05:38:24.605Z,8
2016-08-17T05:39:24.643Z,4
2016-08-17T05:40:24.658Z,4
2016-08-17T05:41:24.651Z,4
2016-08-17T05:42:24.658Z,4
2016-08-17T05:43:24.671Z,4
2016-08-17T05:44:24.661Z,4
2016-08-17T05:45:24.953Z,8
2016-08-17T05:46:24.685Z,8
2016-08-17T05:47:24.697Z,8
2016-08-17T05:48:24.711Z,8
2016-08-17T05:49:24.713Z,8
2016-08-17T05:50:24.723Z,8
2016-08-17T05:51:24.745Z,8
2016-08-17T05:52:24.710Z,8
2016-08-17T05:53:24.741Z,8
2016-08-17T05:54:24.764Z,8
2016-08-17T05:55:25.437Z,8
2016-08-17T05:56:24.795Z,8
2016-08-17T05:57:24.795Z,8
2016-08-17T05:58:24.777Z,8
2016-08-17T05:59:24.813Z,8
2016-08-17T06:00:24.801Z,8
2016-08-17T06:01:24.815Z,8
2016-08-17T06:02:24.835Z,8
2016-08-17T06:03:24.826Z,12
2016-08-17T06:04:25.520Z,12
2016-08-17T06:05:24.831Z,12
2016-08-17T06:06:24.854Z,8
2016-08-17T06:07:24.850Z,8
2016-08-17T06:08:24.897Z,8
2016-08-17T06:09:24.889Z,8
2016-08-17T06:10:24.891Z,8
2016-08-17T06:11:24.922Z,8
2016-08-17T06:12:24.906Z,8
2016-08-17T06:13:24.911Z,8
2016-08-17T06:14:24.923Z,8
2016-08-17T06:15:24.921Z,8
2016-08-17T06:16:24.952Z,8
2016-08-17T06:17:24.939Z,8
2016-08-17T06:18:24.982Z,8
2016-08-17T06:19:24.961Z,8
2016-08-17T06:20:24.967Z,8
2016-08-17T06:21:24.990Z,8
2016-08-17T06:22:24.998Z,8
2016-08-17T06:23:25.001Z,12
2016-08-17T06:24:25.020Z,12
2016-08-17T06:25:25.013Z,12
2016-08-17T06:26:25.014Z,12
2016-08-17T06:27:25.045Z,12
2016-08-17T06:28:25.065Z,12
2016-08-17T06:29:25.082Z,8
2016-08-17T06:30:25.054Z,8
2016-08-17T06:31:25.063Z,12
2016-08-17T06:32:25.073Z,12
2016-08-17T06:33:25.071Z,12
2016-08-17T06:34:25.101Z,12
2016-08-17T06:35:25.101Z,12
2016-08-17T06:36:25.125Z,16
2016-08-17T06:37:25.113Z,16
2016-08-17T06:38:25.124Z,12
2016-08-17T06:39:25.119Z,12
2016-08-17T06:40:25.126Z,12
2016-08-17T06:41:25.156Z,16
2016-08-17T06:42:25.156Z,12
2016-08-17T06:43:25.164Z,12
2016-08-17T06:44:25.195Z,12
2016-08-17T06:45:25.185Z,12
2016-08-17T06:46:25.198Z,12
2016-08-17T06:47:25.216Z,16
2016-08-17T06:48:25.233Z,16
2016-08-17T06:49:25.229Z,16
2016-08-17T06:50:25.249Z,16
2016-08-17T06:51:25.251Z,16
2016-08-17T06:52:25.257Z,16
2016-08-17T06:53:25.225Z,16
2016-08-17T06:54:25.295Z,16
2016-08-17T06:55:25.269Z,16
2016-08-17T06:56:25.286Z,20
2016-08-17T06:57:25.298Z,20
2016-08-17T06:58:25.291Z,16
2016-08-17T06:59:25.302Z,16
2016-08-17T07:00:25.312Z,20
2016-08-17T07:01:25.346Z,20
2016-08-17T07:02:25.328Z,16
2016-08-17T07:03:25.356Z,16
2016-08-17T07:04:25.363Z,20
2016-08-17T07:05:25.372Z,24
2016-08-17T07:06:25.375Z,20
2016-08-17T07:07:25.377Z,20
2016-08-17T07:08:25.396Z,20
2016-08-17T07:09:26.107Z,24
2016-08-17T07:10:25.406Z,20
2016-08-17T07:11:25.423Z,24
2016-08-17T07:12:25.420Z,28
2016-08-17T07:13:25.417Z,28
2016-08-17T07:14:25.438Z,24
2016-08-17T07:15:25.430Z,28
2016-08-17T07:16:25.436Z,28
2016-08-17T07:17:25.448Z,32
2016-08-17T07:18:25.466Z,32
2016-08-17T07:19:25.488Z,32
2016-08-17T07:20:25.468Z,32
2016-08-17T07:21:25.489Z,32
2016-08-17T07:22:25.538Z,32
2016-08-17T07:23:25.538Z,28
2016-08-17T07:24:25.543Z,24
2016-08-17T07:25:25.552Z,28
2016-08-17T07:26:25.535Z,28
2016-08-17T07:27:25.550Z,32
2016-08-17T07:28:25.553Z,28
2016-08-17T07:29:25.590Z,32
2016-08-17T07:30:25.578Z,28
2016-08-17T07:31:25.590Z,32
2016-08-17T07:32:25.613Z,32
2016-08-17T07:33:25.620Z,28
2016-08-17T07:34:25.649Z,32
2016-08-17T07:35:25.637Z,32
2016-08-17T07:36:25.618Z,32
2016-08-17T07:37:25.651Z,32
2016-08-17T07:38:25.638Z,32
2016-08-17T07:39:25.657Z,36
2016-08-17T07:40:25.644Z,36
2016-08-17T07:41:25.656Z,36
2016-08-17T07:42:25.736Z,32
2016-08-17T07:43:25.671Z,32
2016-08-17T07:44:25.700Z,28
2016-08-17T07:45:25.712Z,32
2016-08-17T07:46:25.685Z,32
2016-08-17T07:47:25.732Z,32
2016-08-17T07:48:25.749Z,32
2016-08-17T07:49:25.755Z,32
2016-08-17T07:50:25.731Z,32
2016-08-17T07:51:25.778Z,28
2016-08-17T07:52:25.747Z,32
2016-08-17T07:53:25.786Z,28
2016-08-17T07:54:25.774Z,32
2016-08-17T07:55:25.789Z,32
2016-08-17T07:56:25.818Z,32
2016-08-17T07:57:25.830Z,32
2016-08-17T07:58:25.804Z,32
2016-08-17T07:59:25.846Z,32
2016-08-17T08:00:25.856Z,32
2016-08-17T08:01:25.845Z,32
2016-08-17T08:02:25.838Z,32
2016-08-17T08:03:25.874Z,32
2016-08-17T08:04:25.844Z,32
2016-08-17T08:05:25.909Z,32
2016-08-17T08:06:25.902Z,28
2016-08-17T08:07:25.904Z,32
2016-08-17T08:08:25.930Z,32
2016-08-17T08:09:25.918Z,32
2016-08-17T08:10:25.934Z,32
2016-08-17T08:11:25.951Z,32
2016-08-17T08:12:25.935Z,32
2016-08-17T08:13:25.941Z,36
2016-08-17T08:14:25.970Z,32
2016-08-17T08:15:26.688Z,32
2016-08-17T08:16:25.974Z,32
2016-08-17T08:17:25.974Z,36
2016-08-17T08:18:26.016Z,32
2016-08-17T08:19:25.995Z,36
2016-08-17T08:20:26.010Z,36
2016-08-17T08:21:26.034Z,36
2016-08-17T08:22:26.025Z,36
2016-08-17T08:23:26.035Z,36
2016-08-17T08:24:26.041Z,36
2016-08-17T08:25:26.048Z,32
2016-08-17T08:26:26.053Z,32
2016-08-17T08:27:26.068Z,24
2016-08-17T08:28:26.069Z,32
2016-08-17T08:29:26.078Z,28
2016-08-17T08:30:26.090Z,20
2016-08-17T08:31:26.104Z,24
2016-08-17T08:32:26.108Z,28
2016-08-17T08:33:26.113Z,28
2016-08-17T08:34:26.130Z,28
2016-08-17T08:35:26.828Z,32
2016-08-17T08:36:26.150Z,32
2016-08-17T08:37:26.199Z,28
2016-08-17T08:38:26.179Z,28
2016-08-17T08:39:26.163Z,28
2016-08-17T08:40:26.201Z,28
2016-08-17T08:41:26.203Z,28
2016-08-17T08:42:26.192Z,28
2016-08-17T08:43:26.239Z,28
2016-08-17T08:44:26.214Z,24
2016-08-17T08:45:26.243Z,24
2016-08-17T08:46:26.275Z,12
2016-08-17T08:47:26.253Z,24
2016-08-17T08:48:26.273Z,32
2016-08-17T08:49:26.278Z,32
2016-08-17T08:50:26.268Z,24
2016-08-17T08:51:26.299Z,32
2016-08-17T08:52:26.286Z,28
2016-08-17T08:53:26.275Z,28
2016-08-17T08:54:26.305Z,24
2016-08-17T08:55:26.332Z,28
2016-08-17T08:56:26.323Z,32
2016-08-17T08:57:26.347Z,28
2016-08-17T08:58:26.361Z,28
2016-08-17T08:59:26.365Z,32
2016-08-17T09:00:26.386Z,32
2016-08-17T09:01:26.365Z,32
2016-08-17T09:02:26.398Z,32
2016-08-17T09:03:26.414Z,32
2016-08-17T09:04:26.403Z,24
2016-08-17T09:05:26.416Z,28
2016-08-17T09:06:26.434Z,36
2016-08-17T09:07:26.425Z,24
2016-08-17T09:08:26.430Z,28
2016-08-17T09:09:26.440Z,28
2016-08-17T09:10:26.456Z,36
2016-08-17T09:11:26.470Z,36
2016-08-17T09:12:26.476Z,36
2016-08-17T09:13:26.484Z,32
2016-08-17T09:14:26.492Z,32
2016-08-17T09:15:26.505Z,36
2016-08-17T09:16:26.532Z,36
2016-08-17T09:17:26.507Z,36
2016-08-17T09:18:26.512Z,36
2016-08-17T09:19:26.518Z,36
2016-08-17T09:20:26.552Z,32
2016-08-17T09:21:26.526Z,32
2016-08-17T09:22:26.569Z,36
2016-08-17T09:23:26.546Z,36
2016-08-17T09:24:26.601Z,32
2016-08-17T09:25:26.575Z,32
2016-08-17T09:26:26.576Z,32
2016-08-17T09:27:26.617Z,32
2016-08-17T09:28:26.637Z,32
2016-08-17T09:29:26.601Z,32
2016-08-17T09:30:26.643Z,36
2016-08-17T09:31:26.638Z,32
2016-08-17T09:32:26.648Z,36
2016-08-17T09:33:26.682Z,36
2016-08-17T09:34:26.670Z,36
2016-08-17T09:35:26.655Z,36
2016-08-17T09:36:26.666Z,36
2016-08-17T09:37:26.693Z,36
2016-08-17T09:38:26.716Z,32
2016-08-17T09:39:26.707Z,36
2016-08-17T09:40:26.748Z,36
2016-08-17T09:41:26.720Z,36
2016-08-17T09:42:26.840Z,36
2016-08-17T09:43:26.733Z,40
2016-08-17T09:44:26.729Z,40
2016-08-17T09:45:26.771Z,40
2016-08-17T09:46:26.761Z,44
2016-08-17T09:47:26.794Z,40
2016-08-17T09:48:26.767Z,40
2016-08-17T09:49:26.804Z,44
2016-08-17T09:50:26.803Z,44
2016-08-17T09:51:26.823Z,40
2016-08-17T09:52:26.823Z,36
2016-08-17T09:53:26.807Z,36
2016-08-17T09:54:26.841Z,40
2016-08-17T09:55:26.824Z,44
2016-08-17T09:56:26.828Z,44
2016-08-17T09:57:26.859Z,44
2016-08-17T09:58:26.853Z,44
2016-08-17T09:59:26.873Z,40
2016-08-17T10:00:26.861Z,40
2016-08-17T10:01:26.862Z,40
2016-08-17T10:02:26.897Z,44
2016-08-17T10:03:26.892Z,40
2016-08-17T10:04:26.903Z,40
2016-08-17T10:05:26.907Z,40
2016-08-17T10:06:26.917Z,36
2016-08-17T10:07:26.952Z,36
2016-08-17T10:08:26.943Z,40
2016-08-17T10:09:26.968Z,36
2016-08-17T10:10:26.941Z,36
2016-08-17T10:11:26.996Z,36
2016-08-17T10:12:26.996Z,36
2016-08-17T10:13:27.014Z,36
2016-08-17T10:14:26.983Z,36
2016-08-17T10:15:27.008Z,36
2016-08-17T10:16:27.685Z,40
2016-08-17T10:17:27.031Z,40
2016-08-17T10:18:27.038Z,40
2016-08-17T10:19:27.044Z,40
2016-08-17T10:20:27.046Z,40
2016-08-17T10:21:27.061Z,40
2016-08-17T10:22:27.063Z,40
2016-08-17T10:23:27.071Z,40
2016-08-17T10:24:27.064Z,40
2016-08-17T10:25:27.124Z,40
2016-08-17T10:26:27.090Z,40
2016-08-17T10:27:27.113Z,40
2016-08-17T10:28:27.108Z,40
2016-08-17T10:29:27.147Z,40
2016-08-17T10:30:27.146Z,40
2016-08-17T10:31:27.142Z,40
2016-08-17T10:32:27.144Z,40
2016-08-17T10:33:27.164Z,20
2016-08-17T10:34:27.175Z,40
2016-08-17T10:35:27.187Z,40
2016-08-17T10:36:27.186Z,20
2016-08-17T10:37:27.200Z,40
2016-08-17T10:38:27.198Z,36
2016-08-17T10:39:27.201Z,44
2016-08-17T10:40:27.228Z,44
2016-08-17T10:41:27.231Z,44
2016-08-17T10:42:27.227Z,44
2016-08-17T10:43:27.241Z,44
2016-08-17T10:44:27.253Z,48
2016-08-17T10:45:27.283Z,48
2016-08-17T10:46:27.254Z,44
2016-08-17T10:47:27.274Z,48
2016-08-17T10:48:27.280Z,48
2016-08-17T10:49:27.308Z,48
2016-08-17T10:50:27.308Z,48
2016-08-17T10:51:27.327Z,44
2016-08-17T10:52:27.311Z,28
2016-08-17T10:53:27.290Z,44
2016-08-17T10:54:27.339Z,44
2016-08-17T10:55:27.348Z,44
2016-08-17T10:56:27.361Z,44
2016-08-17T10:57:27.385Z,44
2016-08-17T10:58:27.360Z,20
2016-08-17T10:59:27.375Z,24
2016-08-17T11:00:27.403Z,20
2016-08-17T11:01:27.406Z,40
2016-08-17T11:02:27.399Z,24
2016-08-17T11:03:28.126Z,40
2016-08-17T11:04:27.406Z,48
2016-08-17T11:05:27.456Z,44
2016-08-17T11:06:27.437Z,48
2016-08-17T11:07:27.444Z,48
2016-08-17T11:08:27.442Z,48
2016-08-17T11:09:27.481Z,52
2016-08-17T11:10:28.179Z,48
2016-08-17T11:11:27.482Z,52
2016-08-17T11:12:27.509Z,52
2016-08-17T11:13:27.484Z,48
2016-08-17T11:14:27.505Z,48
2016-08-17T11:15:27.506Z,48
2016-08-17T11:16:27.517Z,48
2016-08-17T11:17:27.519Z,44
2016-08-17T11:18:27.523Z,48
2016-08-17T11:19:27.564Z,48
2016-08-17T11:20:27.556Z,48
2016-08-17T11:21:27.557Z,48
2016-08-17T11:22:27.579Z,52
2016-08-17T11:23:27.597Z,48
2016-08-17T11:24:27.587Z,52
2016-08-17T11:25:27.577Z,52
2016-08-17T11:26:27.620Z,52
2016-08-17T11:27:27.608Z,52
2016-08-17T11:28:27.628Z,52
2016-08-17T11:29:27.630Z,56
2016-08-17T11:30:27.649Z,52
2016-08-17T11:31:27.648Z,52
2016-08-17T11:32:27.661Z,56
2016-08-17T11:33:27.673Z,52
2016-08-17T11:34:27.707Z,48
2016-08-17T11:35:27.682Z,52
2016-08-17T11:36:27.725Z,56
2016-08-17T11:37:27.711Z,52
2016-08-17T11:38:27.715Z,52
2016-08-17T11:39:27.730Z,56
2016-08-17T11:40:27.717Z,52
2016-08-17T11:41:27.728Z,56
2016-08-17T11:42:27.838Z,52
2016-08-17T11:43:28.468Z,52
2016-08-17T11:44:27.786Z,52
2016-08-17T11:45:27.792Z,52
2016-08-17T11:46:27.775Z,52
2016-08-17T11:47:27.801Z,52
2016-08-17T11:48:27.818Z,52
2016-08-17T11:49:27.826Z,48
2016-08-17T11:50:27.819Z,48
2016-08-17T11:51:27.834Z,52
2016-08-17T11:52:27.860Z,52
2016-08-17T11:53:27.838Z,52
2016-08-17T11:54:27.879Z,48
2016-08-17T11:55:27.861Z,44
2016-08-17T11:56:27.857Z,48
2016-08-17T11:57:27.913Z,48
2016-08-17T11:58:27.895Z,44
2016-08-17T11:59:27.905Z,44
2016-08-17T12:00:27.922Z,48
2016-08-17T12:01:27.911Z,48
2016-08-17T12:02:27.931Z,48
2016-08-17T12:03:27.942Z,48
2016-08-17T12:04:27.949Z,48
2016-08-17T12:05:27.972Z,48
2016-08-17T12:06:27.967Z,48
2016-08-17T12:07:27.962Z,48
2016-08-17T12:08:27.988Z,48
2016-08-17T12:09:27.979Z,36
2016-08-17T12:10:28.003Z,48
2016-08-17T12:11:28.041Z,48
2016-08-17T12:12:28.023Z,48
2016-08-17T12:13:28.027Z,48
2016-08-17T12:14:28.016Z,44
2016-08-17T12:15:28.066Z,48
2016-08-17T12:16:28.084Z,48
2016-08-17T12:17:28.071Z,48
2016-08-17T12:18:28.098Z,48
2016-08-17T12:19:28.123Z,48
2016-08-17T12:20:28.093Z,52
2016-08-17T12:21:28.121Z,48
2016-08-17T12:22:28.135Z,48
2016-08-17T12:23:28.129Z,48
2016-08-17T12:24:28.142Z,52
2016-08-17T12:25:28.176Z,52
2016-08-17T12:26:28.152Z,52
2016-08-17T12:27:28.150Z,52
2016-08-17T12:28:28.181Z,48
2016-08-17T12:29:28.207Z,48
2016-08-17T12:30:28.201Z,52
2016-08-17T12:31:28.203Z,48
2016-08-17T12:32:28.212Z,44
2016-08-17T12:33:28.227Z,44
2016-08-17T12:34:28.245Z,44
2016-08-17T12:35:28.251Z,44
2016-08-17T12:36:28.232Z,44
2016-08-17T12:37:28.232Z,44
2016-08-17T12:38:28.265Z,44
2016-08-17T12:39:28.277Z,44
2016-08-17T12:40:28.302Z,44
2016-08-17T12:41:28.314Z,44
2016-08-17T12:42:28.316Z,44
2016-08-17T12:43:28.304Z,48
2016-08-17T12:44:28.316Z,44
2016-08-17T12:45:28.346Z,44
2016-08-17T12:46:28.355Z,44
2016-08-17T12:47:28.337Z,44
2016-08-17T12:48:28.355Z,44
2016-08-17T12:49:28.375Z,44
2016-08-17T12:50:28.366Z,44
2016-08-17T12:51:28.378Z,44
2016-08-17T12:52:28.372Z,44
2016-08-17T12:53:28.418Z,44
2016-08-17T12:54:28.409Z,40
2016-08-17T12:55:28.401Z,44
2016-08-17T12:56:28.461Z,44
2016-08-17T12:57:28.431Z,44
2016-08-17T12:58:28.470Z,44
2016-08-17T12:59:28.452Z,40
2016-08-17T13:00:28.457Z,44
2016-08-17T13:01:28.477Z,44
2016-08-17T13:02:28.508Z,44
2016-08-17T13:03:28.531Z,48
2016-08-17T13:04:28.519Z,44
2016-08-17T13:05:28.519Z,44
2016-08-17T13:06:28.545Z,44
2016-08-17T13:07:28.528Z,44
2016-08-17T13:08:28.539Z,48
2016-08-17T13:09:28.561Z,44
2016-08-17T13:10:28.580Z,44
2016-08-17T13:11:28.597Z,44
2016-08-17T13:12:28.582Z,44
2016-08-17T13:13:28.566Z,44
2016-08-17T13:14:28.628Z,44
2016-08-17T13:15:28.598Z,44
2016-08-17T13:16:28.638Z,44
2016-08-17T13:17:28.624Z,44
2016-08-17T13:18:28.639Z,48
2016-08-17T13:19:28.656Z,44
2016-08-17T13:20:28.683Z,44
2016-08-17T13:21:28.683Z,44
2016-08-17T13:22:28.694Z,40
2016-08-17T13:23:28.692Z,44
2016-08-17T13:24:28.706Z,40
2016-08-17T13:25:28.720Z,44
2016-08-17T13:26:28.721Z,40
2016-08-17T13:27:28.744Z,44
2016-08-17T13:28:28.748Z,40
2016-08-17T13:29:28.742Z,40
2016-08-17T13:30:28.760Z,40
2016-08-17T13:31:28.757Z,44
2016-08-17T13:32:28.801Z,40
2016-08-17T13:33:28.803Z,40
2016-08-17T13:34:28.795Z,40
2016-08-17T13:35:28.822Z,40
2016-08-17T13:36:28.806Z,40
2016-08-17T13:37:28.826Z,36
2016-08-17T13:38:28.831Z,40
2016-08-17T13:39:28.856Z,36
2016-08-17T13:40:28.847Z,40
2016-08-17T13:41:28.891Z,36
2016-08-17T13:42:28.859Z,40
2016-08-17T13:43:28.899Z,36
2016-08-17T13:44:28.874Z,40
2016-08-17T13:45:28.926Z,40
2016-08-17T13:46:28.936Z,40
2016-08-17T13:47:28.895Z,36
2016-08-17T13:48:28.955Z,36
2016-08-17T13:49:28.932Z,36
2016-08-17T13:50:28.956Z,32
2016-08-17T13:51:28.973Z,16
2016-08-17T13:52:29.694Z,16
2016-08-17T13:53:28.959Z,28
2016-08-17T13:54:28.970Z,36
2016-08-17T13:55:28.966Z,36
2016-08-17T13:56:29.030Z,20
2016-08-17T13:57:29.029Z,32
2016-08-17T13:58:29.011Z,40
2016-08-17T13:59:29.040Z,36
2016-08-17T14:00:29.033Z,40
2016-08-17T14:01:29.051Z,40
2016-08-17T14:02:29.061Z,36
2016-08-17T14:03:29.099Z,36
2016-08-17T14:04:29.073Z,36
2016-08-17T14:05:29.091Z,40
2016-08-17T14:06:29.089Z,36
2016-08-17T14:07:29.099Z,36
2016-08-17T14:08:29.108Z,36
2016-08-17T14:09:29.120Z,36
2016-08-17T14:10:29.127Z,36
2016-08-17T14:11:29.173Z,36
2016-08-17T14:12:29.165Z,32
2016-08-17T14:13:29.164Z,36
2016-08-17T14:14:29.203Z,36
2016-08-17T14:15:29.196Z,36
2016-08-17T14:16:29.172Z,36
2016-08-17T14:17:29.216Z,36
2016-08-17T14:18:29.203Z,36
2016-08-17T14:19:29.226Z,36
2016-08-17T14:20:29.240Z,36
2016-08-17T14:21:29.260Z,32
2016-08-17T14:22:29.252Z,36
2016-08-17T14:23:29.280Z,36
2016-08-17T14:24:29.279Z,32
2016-08-17T14:25:29.268Z,32
2016-08-17T14:26:29.314Z,32
2016-08-17T14:27:29.296Z,32
2016-08-17T14:28:29.325Z,28
2016-08-17T14:29:29.313Z,28